Time;durP1;ratioP1;P1;durP2;ratioP2;P2;SDS_P1;SDS_P2;PMS_P1;PMS_P2;Temp;Humidity;BMP_temperature;BMP_pressure;BME280_temperature;BME280_humidity;BME280_pressure;Samples;Min_cycle;Max_cycle;Signal;HPM_P1;HPM_P2
2021/04/13 00:02:29;;;;;;;9.02;2.13;;;;;;;5.87;61.53;103262.31;4995721;28;20026;-84
2021/04/13 00:05:07;;;;;;;8.40;2.47;;;;;;;5.77;61.66;103267.25;4994062;28;20126;-84
2021/04/13 00:07:38;;;;;;;5.50;3.47;;;;;;;5.77;61.45;103271.59;4992683;28;20035;-84
2021/04/13 00:10:19;;;;;;;8.48;2.40;;;;;;;5.80;61.59;103272.59;4994792;28;20118;-84
2021/04/13 00:12:46;;;;;;;6.72;2.22;;;;;;;5.73;61.78;103270.59;5007021;28;20033;-84
2021/04/13 00:15:23;;;;;;;7.15;2.33;;;;;;;5.74;61.67;103271.47;4997716;28;20043;-84
2021/04/13 00:17:49;;;;;;;8.77;2.28;;;;;;;5.68;61.77;103266.88;4998330;28;20122;-84
2021/04/13 00:20:33;;;;;;;10.95;2.03;;;;;;;5.74;61.39;103259.22;4993093;28;20066;-85
2021/04/13 00:23:00;;;;;;;4.50;1.77;;;;;;;5.67;61.30;103259.84;4993391;28;20026;-84
2021/04/13 00:25:50;;;;;;;8.88;1.80;;;;;;;5.69;61.63;103263.41;5017179;28;20556;-84
2021/04/13 00:28:21;;;;;;;8.63;1.60;;;;;;;5.67;61.67;103271.25;5019007;28;20392;-85
2021/04/13 00:30:53;;;;;;;11.38;2.10;;;;;;;5.64;61.63;103267.59;5013014;28;20124;-84
2021/04/13 00:33:23;;;;;;;8.70;1.67;;;;;;;5.63;61.67;103265.78;5009627;28;20502;-85
2021/04/13 00:36:10;;;;;;;7.68;1.90;;;;;;;5.64;61.51;103259.69;5020660;28;20812;-84
2021/04/13 00:38:44;;;;;;;8.35;1.92;;;;;;;5.57;61.46;103262.91;5015776;28;20030;-85
2021/04/13 00:41:21;;;;;;;4.97;1.92;;;;;;;5.53;61.97;103272.41;5023844;28;20037;-83
2021/04/13 00:43:52;;;;;;;6.03;2.05;;;;;;;5.48;61.96;103266.06;5016454;28;20081;-84
2021/04/13 00:46:23;;;;;;;10.13;1.52;;;;;;;5.43;61.77;103265.91;5007253;28;20025;-83
2021/04/13 00:48:51;;;;;;;8.73;2.05;;;;;;;5.39;61.83;103269.22;5016962;28;20026;-84
2021/04/13 00:51:30;;;;;;;10.50;1.70;;;;;;;5.38;62.36;103266.56;5025960;28;20061;-84
2021/04/13 00:54:03;;;;;;;5.47;1.40;;;;;;;5.39;62.17;103268.34;5018294;28;20022;-83
2021/04/13 00:56:30;;;;;;;9.73;2.30;;;;;;;5.34;62.05;103269.03;5017868;28;20084;-84
2021/04/13 00:59:06;;;;;;;5.90;1.70;;;;;;;5.31;62.28;103268.03;5010585;28;20378;-84
2021/04/13 01:01:38;;;;;;;4.32;1.52;;;;;;;5.27;62.54;103274.00;5021960;28;20030;-84
2021/04/13 01:04:15;;;;;;;5.57;1.80;;;;;;;5.29;62.42;103262.69;5016829;28;20022;-84
2021/04/13 01:06:42;;;;;;;6.38;1.92;;;;;;;5.20;62.08;103270.22;5011189;28;20069;-84
2021/04/13 01:09:19;;;;;;;7.53;1.55;;;;;;;5.24;62.11;103274.75;4998915;28;20077;-84
2021/04/13 01:11:58;;;;;;;8.77;2.42;;;;;;;5.19;62.59;103271.94;4996696;28;20113;-84
2021/04/13 01:14:29;;;;;;;9.15;1.90;;;;;;;5.15;62.29;103264.78;4989237;28;20033;-84
2021/04/13 01:17:00;;;;;;;6.20;2.28;;;;;;;5.13;62.70;103269.06;5007773;28;20113;-84
2021/04/13 01:19:52;;;;;;;9.70;2.22;;;;;;;5.18;62.69;103264.91;5000401;28;20101;-84
2021/04/13 01:22:30;;;;;;;5.45;2.05;;;;;;;5.12;62.66;103267.28;4996611;28;20022;-84
2021/04/13 01:25:05;;;;;;;3.35;1.50;;;;;;;5.11;62.87;103268.13;5012777;28;20022;-84
2021/04/13 01:27:32;;;;;;;5.38;2.50;;;;;;;5.06;62.35;103266.13;5005672;28;20015;-84
2021/04/13 01:30:02;;;;;;;7.13;2.30;;;;;;;5.03;62.78;103264.25;5003167;28;20105;-84
2021/04/13 01:32:29;;;;;;;8.00;2.53;;;;;;;5.01;62.61;103266.81;4999545;28;20076;-84
2021/04/13 01:35:03;;;;;;;4.55;2.08;;;;;;;5.02;62.81;103272.97;5004074;28;20026;-84
2021/04/13 01:37:52;;;;;;;8.90;2.40;;;;;;;5.01;62.82;103271.19;4999239;28;20030;-84
2021/04/13 01:40:32;;;;;;;4.53;2.50;;;;;;;5.00;62.60;103279.91;4986919;28;20022;-84
2021/04/13 01:43:00;;;;;;;7.68;2.10;;;;;;;4.97;62.58;103279.75;5006836;28;20034;-84
2021/04/13 01:45:31;;;;;;;4.60;2.13;;;;;;;4.94;62.48;103274.38;5000007;28;20030;-84
2021/04/13 01:47:58;;;;;;;11.45;2.45;;;;;;;4.92;62.82;103271.72;4997845;28;20501;-84
2021/04/13 01:50:34;;;;;;;5.50;1.95;;;;;;;4.93;62.50;103267.34;5012174;28;20022;-84
2021/04/13 01:53:11;;;;;;;5.43;3.10;;;;;;;4.89;62.63;103268.03;5009337;28;20449;-84
2021/04/13 01:55:46;;;;;;;5.00;2.28;;;;;;;4.84;62.39;103273.97;5001191;28;20371;-84
2021/04/13 02:01:12;;;;;;;11.52;2.72;;;;;;;4.82;63.24;103282.63;5015624;28;20428;-84
2021/04/13 02:04:26;;;;;;;10.40;2.70;;;;;;;4.86;62.89;103277.59;5014921;28;20023;-84
2021/04/13 02:07:18;;;;;;;;;;;;;;;4.91;63.45;103276.88;5000692;28;20124;-83
2021/04/13 02:09:58;;;;;;;8.65;2.22;;;;;;;4.74;62.75;103286.66;4995555;28;19925;-84
2021/04/13 02:12:30;;;;;;;5.50;2.45;;;;;;;4.70;62.81;103283.91;5009822;28;20083;-84
2021/04/13 02:17:46;;;;;;;7.60;2.70;;;;;;;4.66;63.65;103286.31;5077714;27;20948;-84
2021/04/13 02:20:18;;;;;;;7.68;2.22;;;;;;;4.66;63.25;103289.84;5049615;28;20073;-84
2021/04/13 02:22:46;;;;;;;7.38;2.30;;;;;;;4.64;63.46;103290.63;5050059;28;20040;-84
2021/04/13 02:25:17;;;;;;;5.50;2.70;;;;;;;4.62;63.66;103284.38;5049539;28;20392;-84
2021/04/13 02:27:46;;;;;;;5.72;2.33;;;;;;;4.60;63.81;103293.91;5045142;28;20048;-84
2021/04/13 02:30:16;;;;;;;7.97;2.47;;;;;;;4.64;63.74;103295.88;5049585;28;20025;-84
2021/04/13 02:32:45;;;;;;;9.13;2.97;;;;;;;4.65;63.65;103295.03;5049408;28;20391;-84
2021/04/13 02:35:22;;;;;;;8.75;3.08;;;;;;;4.74;63.75;103292.81;5049695;28;20460;-84
2021/04/13 02:37:52;;;;;;;10.95;2.35;;;;;;;4.71;63.78;103297.94;5048753;28;20067;-84
2021/04/13 02:40:25;;;;;;;5.53;2.33;;;;;;;4.72;63.65;103299.72;5037556;28;20073;-84
2021/04/13 02:42:57;;;;;;;8.43;2.65;;;;;;;4.70;63.17;103296.13;5043532;28;20030;-84
2021/04/13 02:48:13;;;;;;;4.25;2.22;;;;;;;4.68;63.65;103298.69;5117475;27;20374;-84
2021/04/13 02:50:45;;;;;;;4.78;2.03;;;;;;;4.66;63.16;103292.47;5119771;27;20482;-84
2021/04/13 02:53:15;;;;;;;12.25;2.90;;;;;;;4.66;63.66;103302.06;5120217;27;20054;-84
2021/04/13 02:55:50;;;;;;;9.32;3.15;;;;;;;4.71;63.22;103303.19;5117766;28;20024;-84
2021/04/13 02:58:20;;;;;;;6.82;2.20;;;;;;;4.65;63.37;103297.69;5114706;28;20058;-84
2021/04/13 03:00:51;;;;;;;7.20;2.53;;;;;;;4.68;63.81;103298.69;5110997;28;20114;-84
2021/04/13 03:03:24;;;;;;;13.68;3.00;;;;;;;4.68;63.68;103301.31;5106885;28;20051;-84
2021/04/13 03:05:53;;;;;;;15.48;3.10;;;;;;;4.67;63.81;103299.53;5120604;28;20088;-84
2021/04/13 03:08:20;;;;;;;9.63;3.85;;;;;;;4.67;63.36;103306.50;5110036;28;20023;-84
2021/04/13 03:10:53;;;;;;;6.00;2.72;;;;;;;4.67;63.30;103306.50;5105803;28;20023;-84
2021/04/13 03:13:24;;;;;;;14.77;3.85;;;;;;;4.67;63.48;103302.16;5126790;27;20028;-84
2021/04/13 03:15:55;;;;;;;6.45;2.92;;;;;;;4.69;63.33;103305.72;5118699;28;20056;-84
2021/04/13 03:18:25;;;;;;;3.42;2.20;;;;;;;4.69;63.62;103303.09;5105461;28;20434;-84
2021/04/13 03:20:55;;;;;;;11.07;2.75;;;;;;;4.66;63.45;103299.44;5094466;27;20044;-84
2021/04/13 03:23:26;;;;;;;7.72;2.30;;;;;;;4.65;63.55;103302.94;5114694;27;20031;-84
2021/04/13 03:25:56;;;;;;;10.55;2.80;;;;;;;4.63;63.58;103294.06;5117069;27;20035;-84
2021/04/13 03:28:31;;;;;;;8.68;2.75;;;;;;;4.62;63.79;103308.03;5121448;27;20379;-83
2021/04/13 03:31:01;;;;;;;13.35;3.25;;;;;;;4.60;63.46;103300.09;5112869;27;20502;-84
2021/04/13 03:33:31;;;;;;;10.77;3.17;;;;;;;4.61;63.46;103304.50;5110389;28;20040;-84
2021/04/13 03:36:23;;;;;;;6.40;2.85;;;;;;;4.66;63.76;103299.44;5121818;27;20038;-84
2021/04/13 03:38:55;;;;;;;13.70;2.78;;;;;;;4.61;63.80;103308.84;5123002;27;20020;-84
2021/04/13 03:41:22;;;;;;;6.13;3.08;;;;;;;4.57;63.53;103304.31;5114882;28;20015;-84
2021/04/13 03:43:57;;;;;;;10.55;2.83;;;;;;;4.60;63.93;103300.09;5112576;28;20028;-84
2021/04/13 03:46:26;;;;;;;8.07;2.65;;;;;;;4.49;64.15;103296.09;5113920;28;20114;-84
2021/04/13 03:48:53;;;;;;;4.30;2.00;;;;;;;4.52;63.94;103298.84;5124999;27;20023;-84
2021/04/13 03:51:28;;;;;;;7.20;2.05;;;;;;;4.57;63.67;103301.66;5117425;27;20193;-84
2021/04/13 03:53:54;;;;;;;12.77;2.95;;;;;;;4.50;63.74;103293.53;5114197;28;20028;-84
2021/04/13 03:56:23;;;;;;;7.65;2.80;;;;;;;4.48;63.91;103297.78;5114875;27;20024;-84
2021/04/13 03:58:55;;;;;;;10.25;2.75;;;;;;;4.46;63.71;103301.19;5116282;27;20470;-84
2021/04/13 04:01:25;;;;;;;11.07;3.08;;;;;;;4.42;63.52;103300.16;5106912;28;20035;-84
2021/04/13 04:03:55;;;;;;;14.65;2.90;;;;;;;4.42;63.52;103292.28;5091638;28;20511;-84
2021/04/13 04:07:03;;;;;;;11.65;3.28;;;;;;;4.51;63.71;103297.03;5093332;28;20114;-84
2021/04/13 04:12:26;;;;;;;12.50;3.20;;;;;;;4.41;63.65;103300.09;5008865;28;20816;-84
2021/04/13 04:14:58;;;;;;;7.57;2.47;;;;;;;4.41;63.62;103307.97;5017283;28;20030;-84
2021/04/13 04:17:27;;;;;;;7.18;2.70;;;;;;;4.32;64.01;103304.06;5010944;28;20022;-85
2021/04/13 04:19:56;;;;;;;9.82;3.80;;;;;;;4.29;63.75;103306.56;5007886;28;20026;-84
2021/04/13 04:22:24;;;;;;;6.75;3.20;;;;;;;4.26;63.84;103314.31;5023489;28;20499;-84
2021/04/13 04:24:51;;;;;;;7.15;2.58;;;;;;;4.25;63.95;103323.03;5020656;28;20029;-84
2021/04/13 04:27:38;;;;;;;11.80;3.17;;;;;;;4.26;63.70;103330.06;5004186;28;20397;-84
2021/04/13 04:30:11;;;;;;;13.23;3.40;;;;;;;4.25;63.54;103332.59;5010427;28;20114;-84
2021/04/13 04:32:43;;;;;;;9.85;3.97;;;;;;;4.28;63.97;103322.25;5012773;28;20022;-84
2021/04/13 04:35:29;;;;;;;9.55;3.05;;;;;;;4.27;63.57;103330.97;5020976;27;20048;-84
2021/04/13 04:46:43;;;;;;;10.50;3.05;;;;;;;4.29;63.87;103337.19;5074308;28;20380;-85
2021/04/13 04:49:14;;;;;;;5.25;3.08;;;;;;;4.23;63.43;103334.28;5077837;28;20040;-85
2021/04/13 04:51:41;;;;;;;16.70;2.72;;;;;;;4.21;63.48;103339.44;5073952;28;20035;-84
2021/04/13 04:54:09;;;;;;;9.38;4.03;;;;;;;4.16;63.90;103344.50;5073149;28;20059;-85
2021/04/13 04:56:35;;;;;;;10.93;2.95;;;;;;;4.19;64.36;103339.38;5086922;28;20059;-85
2021/04/13 04:59:02;;;;;;;7.75;2.95;;;;;;;4.20;64.38;103341.16;5080805;28;20028;-84
2021/04/13 05:01:28;;;;;;;11.25;3.42;;;;;;;4.22;63.97;103341.22;5067447;28;20024;-85
2021/04/13 05:03:55;;;;;;;8.18;3.35;;;;;;;4.24;63.84;103342.22;5078219;28;20029;-85
2021/04/13 05:06:21;;;;;;;16.65;3.83;;;;;;;4.28;63.97;103348.50;5067454;28;20040;-85
2021/04/13 05:08:48;;;;;;;10.07;4.45;;;;;;;4.26;63.98;103343.19;5063522;28;20029;-84
2021/04/13 05:11:15;;;;;;;8.48;3.63;;;;;;;4.28;64.29;103338.00;5069579;28;20028;-84
2021/04/13 05:13:41;;;;;;;10.25;3.40;;;;;;;4.29;63.94;103355.56;5072191;28;20064;-85
2021/04/13 05:16:08;;;;;;;7.53;3.00;;;;;;;4.28;64.31;103349.38;5063394;28;20477;-85
2021/04/13 05:18:34;;;;;;;9.02;3.20;;;;;;;4.29;64.28;103351.19;5055156;28;20172;-85
2021/04/13 05:21:03;;;;;;;10.63;3.03;;;;;;;4.33;64.13;103357.50;5059880;28;20143;-85
2021/04/13 05:23:29;;;;;;;12.73;3.83;;;;;;;4.34;64.11;103359.28;5057896;28;20117;-83
2021/04/13 05:25:56;;;;;;;11.52;3.70;;;;;;;4.34;64.26;103357.56;5061242;28;20025;-83
2021/04/13 05:28:22;;;;;;;14.65;4.82;;;;;;;4.34;64.60;103364.53;5063039;28;20063;-83
2021/04/13 05:30:50;;;;;;;5.88;3.17;;;;;;;4.43;64.03;103367.56;5066828;28;20040;-84
2021/04/13 05:33:18;;;;;;;11.25;3.72;;;;;;;4.46;64.14;103366.81;5063015;28;20040;-83
2021/04/13 05:35:44;;;;;;;12.60;4.35;;;;;;;4.48;64.39;103373.94;5065321;28;20052;-84
2021/04/13 05:38:17;;;;;;;10.73;3.63;;;;;;;4.56;63.94;103376.00;5066388;28;20034;-83
2021/04/13 05:40:43;;;;;;;11.85;3.88;;;;;;;4.56;63.99;103387.44;5064546;28;20028;-85
2021/04/13 05:43:12;;;;;;;10.23;3.38;;;;;;;4.62;63.86;103392.06;5064179;28;20033;-81
2021/04/13 05:45:42;;;;;;;9.30;3.63;;;;;;;4.65;63.86;103392.22;5050802;28;20056;-83
2021/04/13 05:48:10;;;;;;;7.07;3.75;;;;;;;4.63;64.31;103389.50;5064652;28;20032;-83
2021/04/13 05:50:40;;;;;;;11.32;3.70;;;;;;;4.71;64.07;103392.50;5067194;28;20040;-84
2021/04/13 05:53:08;;;;;;;12.55;4.30;;;;;;;4.80;63.82;103403.41;5061968;28;20384;-83
2021/04/13 05:55:36;;;;;;;4.10;2.80;;;;;;;4.89;64.14;103399.41;5051609;28;20115;-82
2021/04/13 05:58:22;;;;;;;8.02;3.22;;;;;;;4.99;64.32;103398.97;5041768;28;20499;-83
2021/04/13 06:00:54;;;;;;;7.45;3.38;;;;;;;5.06;64.18;103406.31;5041736;28;20026;-87
2021/04/13 06:03:24;;;;;;;11.25;4.88;;;;;;;5.17;63.78;103405.03;5047393;28;20037;-90
2021/04/13 06:05:54;;;;;;;10.45;3.10;;;;;;;5.21;63.95;103410.41;5046110;28;21374;-89
2021/04/13 06:08:20;;;;;;;5.70;2.70;;;;;;;5.29;63.53;103409.03;5045493;28;20033;-89
2021/04/13 06:10:47;;;;;;;7.25;2.65;;;;;;;5.35;63.73;103406.66;5042863;28;20033;-90
2021/04/13 06:13:13;;;;;;;10.15;2.42;;;;;;;5.41;63.29;103413.91;5046013;28;20384;-89
2021/04/13 06:15:42;;;;;;;12.88;2.88;;;;;;;5.46;63.79;103415.91;5036334;28;20102;-95
2021/04/13 06:18:09;;;;;;;14.05;3.78;;;;;;;5.55;63.53;103414.50;5038030;28;20018;-89
2021/04/13 06:20:35;;;;;;;15.70;3.45;;;;;;;5.62;63.31;103424.44;5043154;28;20525;-88
2021/04/13 06:23:01;;;;;;;7.25;2.90;;;;;;;5.70;63.04;103427.41;5040569;28;20021;-88
2021/04/13 06:25:30;;;;;;;8.10;3.08;;;;;;;5.77;63.26;103424.19;5041399;28;20484;-88
2021/04/13 06:27:57;;;;;;;10.10;2.75;;;;;;;5.82;63.10;103426.19;5037172;28;20034;-88
2021/04/13 06:30:25;;;;;;;7.03;2.47;;;;;;;5.90;63.02;103437.00;5039377;28;20468;-90
2021/04/13 06:32:52;;;;;;;5.05;2.60;;;;;;;5.97;62.77;103430.28;5040595;28;20035;-89
2021/04/13 06:35:19;;;;;;;11.00;2.65;;;;;;;6.05;62.75;103436.78;5042765;28;20569;-85
2021/04/13 06:37:47;;;;;;;9.02;3.13;;;;;;;6.15;62.70;103427.50;5043739;28;20036;-88
2021/04/13 06:40:38;;;;;;;8.75;2.22;;;;;;;6.23;62.46;103430.44;5049107;28;20037;-88
2021/04/13 06:43:23;;;;;;;8.57;2.15;;;;;;;6.39;62.12;103443.41;5043257;28;20037;-91
2021/04/13 06:49:01;;;;;;;9.75;2.05;;;;;;;6.63;61.82;103440.81;5061685;28;20418;-88
2021/04/13 06:51:53;;;;;;;8.20;3.00;;;;;;;6.72;60.69;103442.91;5065074;28;20033;-86
2021/04/13 07:08:25;;;;;;;6.55;1.40;;;;;;;7.27;59.35;103458.94;5070173;28;20425;-86
2021/04/13 07:10:56;;;;;;;2.22;1.13;;;;;;;7.37;58.65;103461.06;5039355;28;20076;-86
2021/04/13 07:13:34;;;;;;;5.28;2.30;;;;;;;7.50;58.37;103458.88;5047456;28;20075;-86
2021/04/13 07:16:10;;;;;;;7.88;1.83;;;;;;;7.56;58.13;103461.72;5045107;28;20570;-87
2021/04/13 07:19:03;;;;;;;3.63;1.38;;;;;;;7.66;58.02;103457.66;5045786;28;20376;-85
2021/04/13 07:21:46;;;;;;;6.70;1.58;;;;;;;7.77;56.89;103461.56;5046926;28;20029;-83
2021/04/13 07:24:23;;;;;;;3.28;0.80;;;;;;;7.76;56.79;103455.38;5049456;28;20106;-82
2021/04/13 07:27:03;;;;;;;4.38;1.50;;;;;;;7.85;56.94;103464.44;5046879;28;20033;-82
2021/04/13 07:34:53;;;;;;;3.78;1.20;;;;;;;8.04;56.56;103463.34;5076771;27;20432;-84
2021/04/13 07:37:43;;;;;;;4.82;1.38;;;;;;;8.14;55.36;103464.50;5062665;28;20104;-87
2021/04/13 07:40:14;;;;;;;7.00;1.20;;;;;;;8.20;55.85;103462.06;5063562;28;20048;-86
2021/04/13 07:42:49;;;;;;;3.78;1.00;;;;;;;8.22;53.85;103460.38;5069400;28;20032;-86
2021/04/13 07:48:42;;;;;;;12.90;1.40;;;;;;;8.34;54.12;103466.06;5081356;27;20938;-84
2021/04/13 07:54:40;;;;;;;5.40;1.40;;;;;;;8.58;52.55;103468.59;5084729;27;20399;-94
2021/04/13 07:57:18;;;;;;;6.15;1.33;;;;;;;8.69;52.56;103474.19;5078508;28;20036;-96
2021/04/13 08:00:05;;;;;;;7.05;1.10;;;;;;;8.73;52.74;103469.91;5071345;28;20033;-96
2021/04/13 08:02:32;;;;;;;10.82;1.10;;;;;;;8.84;52.47;103478.16;5051723;28;20163;-93
2021/04/13 08:05:02;;;;;;;6.03;0.95;;;;;;;8.95;52.23;103479.38;5062764;28;20384;-95
2021/04/13 08:07:51;;;;;;;6.07;1.17;;;;;;;9.06;52.28;103471.75;5060601;28;20530;-92
2021/04/13 08:13:13;;;;;;;5.13;1.50;;;;;;;9.35;51.39;103469.91;5071007;28;20418;-92
2021/04/13 08:18:40;;;;;;;5.22;1.02;;;;;;;9.46;50.23;103456.06;5051174;28;20497;-91
2021/04/13 08:21:25;;;;;;;14.82;2.13;;;;;;;9.71;49.84;103457.63;5039114;28;20116;-93
2021/04/13 08:23:53;;;;;;;5.80;1.42;;;;;;;9.64;50.34;103459.19;5039304;28;20022;-89
2021/04/13 08:38:08;;;;;;;5.43;0.82;;;;;;;9.94;46.25;103474.06;5057576;28;20498;-91
2021/04/13 08:40:42;;;;;;;5.47;0.95;;;;;;;10.02;47.40;103477.81;5028532;28;20481;-85
2021/04/13 08:46:20;;;;;;;5.80;0.98;;;;;;;10.36;46.31;103473.34;5074867;28;20397;-86
2021/04/13 08:51:45;;;;;;;3.72;0.75;;;;;;;10.59;46.48;103469.44;5074126;27;20421;-93
2021/04/13 09:00:06;;;;;;;5.18;1.00;;;;;;;10.58;45.40;103471.19;5062649;28;20358;-90
2021/04/13 09:02:38;;;;;;;4.95;1.02;;;;;;;10.66;45.56;103472.25;5057525;28;20052;-85
2021/04/13 09:10:48;;;;;;;4.47;0.98;;;;;;;11.10;44.32;103465.19;5072803;28;20377;-92
2021/04/13 09:16:19;;;;;;;6.43;1.00;;;;;;;11.09;44.41;103463.41;5101243;27;20364;-92
2021/04/13 09:21:47;;;;;;;3.60;1.10;;;;;;;11.28;44.01;103462.91;5069106;28;20381;-90
2021/04/13 09:24:25;;;;;;;3.35;0.77;;;;;;;11.32;43.92;103459.44;5057957;28;20407;-90
2021/04/13 09:35:30;;;;;;;7.10;1.00;;;;;;;11.53;40.82;103455.41;5072975;28;20831;-89
2021/04/13 09:38:27;;;;;;;2.78;0.80;;;;;;;11.73;41.84;103457.50;5052866;28;20034;-92
2021/04/13 09:41:18;;;;;;;3.35;1.10;;;;;;;11.77;41.58;103459.34;5042320;28;20030;-93
2021/04/13 09:46:53;;;;;;;8.25;1.65;;;;;;;11.96;42.26;103461.47;5076628;27;20413;-91
2021/04/13 09:55:32;;;;;;;7.38;1.35;;;;;;;12.15;40.25;103459.13;5057390;28;20514;-91
2021/04/13 10:04:04;;;;;;;8.65;1.80;;;;;;;12.29;38.99;103451.34;5065678;28;20357;-90
2021/04/13 10:06:35;;;;;;;5.43;0.95;;;;;;;12.29;37.07;103452.22;5061291;28;20040;-90
2021/04/13 10:09:11;;;;;;;1.70;0.73;;;;;;;12.50;38.21;103449.84;5049595;28;20049;-90
2021/04/13 10:18:02;;;;;;;9.02;1.65;;;;;;;12.99;37.98;103441.63;5078118;28;20378;-89
2021/04/13 10:21:08;;;;;;;3.80;0.98;;;;;;;12.96;38.27;103445.13;5021955;28;20476;-90
2021/04/13 10:24:07;;;;;;;3.60;1.00;;;;;;;12.86;38.40;103452.13;5011969;28;20370;-88
2021/04/13 10:26:55;;;;;;;6.50;1.38;;;;;;;12.58;38.08;103449.06;5025617;28;20022;-88
2021/04/13 10:30:01;;;;;;;4.32;1.17;;;;;;;12.52;37.58;103449.00;5004726;28;20034;-90
2021/04/13 10:32:57;;;;;;;3.28;1.00;;;;;;;12.71;37.59;103438.59;5025628;28;20034;-90
2021/04/13 10:35:52;;;;;;;3.92;1.00;;;;;;;13.04;36.45;103434.56;5022900;28;20025;-91
2021/04/13 10:41:29;;;;;;;6.13;1.45;;;;;;;13.43;37.11;103430.56;5071600;28;21021;-91
2021/04/13 10:44:28;;;;;;;2.83;1.13;;;;;;;13.29;35.02;103435.72;5051717;28;20472;-90
2021/04/13 10:50:27;;;;;;;4.45;1.10;;;;;;;13.06;37.17;103439.03;5073813;27;20417;-88
2021/04/13 10:59:38;;;;;;;4.07;1.13;;;;;;;12.69;37.78;103445.69;5063940;27;20410;-91
2021/04/13 11:05:38;;;;;;;5.72;1.15;;;;;;;13.08;37.94;103433.72;5078887;27;20166;-87
2021/04/13 11:08:44;;;;;;;2.35;1.50;;;;;;;13.30;36.03;103423.31;5067754;28;20029;-88
2021/04/13 11:17:47;;;;;;;4.70;1.52;;;;;;;13.30;36.07;103428.66;5080657;28;20427;-85
2021/04/13 11:23:42;;;;;;;3.60;1.00;;;;;;;12.90;35.41;103429.97;5069880;27;20882;-88
2021/04/13 11:29:32;;;;;;;4.80;1.25;;;;;;;12.92;34.81;103428.25;5061509;28;20419;-82
2021/04/13 11:35:01;;;;;;;4.78;1.30;;;;;;;13.35;34.11;103410.94;5078688;27;20422;-87
2021/04/13 11:37:50;;;;;;;7.07;1.73;;;;;;;13.19;34.15;103404.56;5064019;28;20439;-86
2021/04/13 11:43:02;;;;;;;1.65;1.08;;;;;;;12.97;35.59;103408.75;5078332;27;20982;-86
2021/04/13 11:45:56;;;;;;;4.43;1.20;;;;;;;12.59;34.86;103424.28;5079396;28;20079;-84
2021/04/13 11:48:39;;;;;;;3.40;1.27;;;;;;;12.34;35.73;103415.09;5083138;28;20363;-86
2021/04/13 11:51:29;;;;;;;5.28;1.35;;;;;;;12.64;37.00;103411.03;5063470;28;20110;-84
2021/04/13 11:54:16;;;;;;;3.67;1.17;;;;;;;12.87;35.74;103403.34;5063810;28;20037;-84
2021/04/13 11:56:42;;;;;;;5.75;1.25;;;;;;;13.17;34.40;103403.66;5064315;28;20037;-84
2021/04/13 11:59:22;;;;;;;2.35;1.30;;;;;;;13.55;32.03;103401.38;5062026;28;20059;-85
2021/04/13 12:01:57;;;;;;;3.03;1.48;;;;;;;13.89;33.53;103396.34;5059496;28;20037;-84
2021/04/13 12:04:43;;;;;;;3.95;1.40;;;;;;;13.98;32.73;103397.25;5044185;28;20065;-84
2021/04/13 12:07:10;;;;;;;3.45;1.70;;;;;;;14.39;33.18;103401.94;5043389;28;20379;-85
2021/04/13 12:31:23;;;;;;;2.67;0.93;;;;;;;14.72;29.63;103403.88;5075359;27;20486;-85
2021/04/13 12:36:52;;;;;;;3.35;0.95;;;;;;;14.88;29.60;103398.63;5079284;27;20457;-86
2021/04/13 12:39:48;;;;;;;4.28;1.55;;;;;;;15.18;28.71;103391.56;5067453;28;20028;-86
2021/04/13 12:42:39;;;;;;;3.20;0.93;;;;;;;15.34;29.54;103388.00;5059372;28;20033;-86
2021/04/13 12:48:22;;;;;;;2.58;1.05;;;;;;;14.96;27.81;103395.97;5071501;27;20448;-86
2021/04/13 12:53:43;;;;;;;1.55;0.90;;;;;;;14.95;26.82;103388.84;5066387;28;20428;-85
2021/04/13 12:56:13;;;;;;;2.30;1.02;;;;;;;14.99;27.44;103390.63;5064662;28;20421;-86
2021/04/13 12:58:42;;;;;;;3.42;0.80;;;;;;;14.96;25.68;103393.28;5062988;28;20025;-85
2021/04/13 13:01:16;;;;;;;5.43;1.00;;;;;;;14.70;25.88;103386.09;5048601;28;20022;-83
2021/04/13 13:03:43;;;;;;;2.97;1.73;;;;;;;14.65;26.89;103385.19;5048832;28;20066;-84
2021/04/13 13:06:28;;;;;;;1.58;0.82;;;;;;;14.63;28.43;103386.91;5048853;28;20040;-84
2021/04/13 13:11:40;;;;;;;2.42;0.90;;;;;;;14.40;28.20;103401.97;5072003;28;20566;-86
2021/04/13 13:14:07;;;;;;;3.13;0.80;;;;;;;14.24;28.22;103395.66;5070096;28;20061;-85
2021/04/13 13:16:33;;;;;;;1.35;0.90;;;;;;;14.23;28.07;103391.19;5069361;28;20082;-86
2021/04/13 13:19:00;;;;;;;1.75;0.98;;;;;;;14.23;28.69;103385.88;5062549;28;20069;-85
2021/04/13 13:21:30;;;;;;;1.35;1.10;;;;;;;13.82;27.75;103385.59;5049601;28;20460;-86
2021/04/13 13:24:00;;;;;;;2.35;0.98;;;;;;;13.88;28.56;103391.88;5036014;28;20498;-86
2021/04/13 13:29:11;;;;;;;3.50;0.90;;;;;;;13.83;29.91;103382.97;5081671;28;20421;-87
2021/04/13 13:31:39;;;;;;;1.67;1.00;;;;;;;13.82;31.25;103382.94;5054988;28;20042;-85
2021/04/13 13:34:12;;;;;;;4.40;1.20;;;;;;;13.94;30.95;103379.47;5045776;28;20036;-85
2021/04/13 13:36:40;;;;;;;;;;;;;;;13.87;29.37;103390.09;5044985;28;20373;-85
2021/04/13 13:39:11;;;;;;;4.25;0.93;;;;;;;13.68;29.67;103382.84;5050686;28;19917;-84
2021/04/13 13:41:40;;;;;;;1.95;0.98;;;;;;;13.57;30.53;103388.97;5052657;28;20022;-88
2021/04/13 13:44:26;;;;;;;2.05;0.73;;;;;;;13.28;30.32;103383.34;5047410;28;20088;-83
2021/04/13 13:49:47;;;;;;;2.85;1.20;;;;;;;13.58;31.57;103381.84;5069106;28;20403;-85
2021/04/13 13:52:50;;;;;;;3.22;1.27;;;;;;;13.90;30.85;103374.09;5060454;28;20032;-83
2021/04/13 13:58:04;;;;;;;1.73;1.10;;;;;;;14.23;29.21;103375.19;5073810;28;20487;-85
2021/04/13 14:00:58;;;;;;;3.30;1.00;;;;;;;14.74;28.03;103368.31;5049018;28;20065;-85
2021/04/13 14:06:18;;;;;;;1.67;0.90;;;;;;;14.74;27.46;103373.66;5001676;28;20393;-91
2021/04/13 14:11:33;;;;;;;4.22;1.58;;;;;;;14.55;27.17;103371.78;5048309;27;20386;-85
2021/04/13 14:14:08;;;;;;;1.27;0.88;;;;;;;14.21;26.84;103366.28;5047938;28;20056;-85
2021/04/13 14:25:00;;;;;;;1.88;1.30;;;;;;;13.88;27.66;103356.31;5073364;28;20975;-83
2021/04/13 14:27:28;;;;;;;3.55;1.48;;;;;;;13.94;28.81;103352.81;5061499;28;20388;-87
2021/04/13 14:32:35;;;;;;;2.20;1.45;;;;;;;13.95;29.35;103358.16;5059991;28;20427;-82
2021/04/13 14:35:02;;;;;;;4.80;1.70;;;;;;;13.98;29.80;103358.19;5068899;28;20036;-85
2021/04/13 14:37:32;;;;;;;5.00;2.22;;;;;;;13.84;30.46;103355.41;5067854;28;20391;-82
2021/04/13 14:40:09;;;;;;;4.70;2.17;;;;;;;14.03;29.63;103353.78;5063145;28;20047;-89
2021/04/13 14:42:36;;;;;;;5.38;2.40;;;;;;;14.20;30.28;103351.16;5068731;28;20114;-82
2021/04/13 14:45:03;;;;;;;6.47;2.50;;;;;;;14.37;29.86;103348.59;5066697;28;20112;-83
2021/04/13 14:47:33;;;;;;;4.47;2.67;;;;;;;14.55;29.30;103345.13;5068431;28;20029;-83
2021/04/13 14:50:06;;;;;;;3.95;1.95;;;;;;;14.63;28.81;103336.22;5068001;28;20079;-84
2021/04/13 14:52:33;;;;;;;4.32;2.25;;;;;;;15.03;29.07;103333.69;5067013;28;20021;-83
2021/04/13 14:54:59;;;;;;;2.50;2.28;;;;;;;15.39;28.39;103328.34;5067416;28;20041;-86
2021/04/13 14:57:25;;;;;;;3.63;2.58;;;;;;;15.54;27.06;103328.34;5068339;28;20092;-86
2021/04/13 14:59:52;;;;;;;3.90;2.22;;;;;;;15.97;27.61;103324.72;5068754;28;20087;-85
2021/04/13 15:02:19;;;;;;;6.07;2.85;;;;;;;16.28;27.57;103322.81;5057627;28;20069;-85
2021/04/13 15:04:46;;;;;;;7.50;2.58;;;;;;;16.14;26.14;103327.34;5064767;28;20030;-86
2021/04/13 15:07:12;;;;;;;2.63;1.90;;;;;;;16.33;26.48;103320.13;5069366;28;20047;-88
2021/04/13 15:09:41;;;;;;;3.55;2.50;;;;;;;15.84;25.57;103330.09;5068646;28;20041;-88
2021/04/13 15:12:08;;;;;;;2.65;2.00;;;;;;;15.88;25.90;103319.41;5064559;28;20087;-89
2021/04/13 15:14:34;;;;;;;6.00;2.30;;;;;;;15.95;25.96;103314.03;5068163;28;20037;-88
2021/04/13 15:17:01;;;;;;;3.65;2.00;;;;;;;15.85;25.85;103321.19;5064081;28;20028;-89
2021/04/13 15:19:27;;;;;;;4.28;2.33;;;;;;;15.82;26.08;103321.19;5065771;28;20112;-87
2021/04/13 15:21:54;;;;;;;2.00;1.58;;;;;;;16.01;25.77;103310.44;5065296;28;20057;-87
2021/04/13 15:24:24;;;;;;;3.72;1.55;;;;;;;16.12;25.33;103316.63;5065108;28;20059;-84
2021/04/13 15:26:54;;;;;;;2.67;1.45;;;;;;;16.28;25.21;103306.78;5072209;28;20044;-88
2021/04/13 15:29:24;;;;;;;3.15;1.67;;;;;;;16.50;25.44;103310.22;5075767;28;20041;-87
2021/04/13 15:31:52;;;;;;;7.32;2.05;;;;;;;16.66;25.49;103307.47;5079309;28;20120;-87
2021/04/13 15:34:28;;;;;;;3.70;1.90;;;;;;;16.22;23.77;103308.59;5082836;28;20051;-93